x

Frying Pan Shoals, Nc Buoy (41013) Wave Buoy

9:50 - Fri 28th Nov 2014 All times are EST. -5 hours from GMT.

  • Sig Wave height 5.9ft
  • Swell Direction
  • Peak Period 6s
  • Average Period 5s
  • Wind
    22mph, 27mph gusts
  • Sea Temp 68°f
  • Luft Temp 44°f
  • Sea Pressure 1027.2mb
  • Frying Pan Shoals, Nc Buoy
  • Frying Pan Shoals, Nc Buoy

More Historic Weather Station data

Upgrade to MSW Pro to gain access to the past 30 days of data for over 8000 Wavebouys and Weather Stations around the globe.

Join Pro

Comparision Forecast

View Surf forecast
   
Fr 11/28 9:50 6ft 6s 5s 22 27 mph 1027.2mb 68f 44f
8:50 6ft 6s 5s 20 27 mph 1026.9mb 68f 44f
7:50 6ft 6s 5s 25 29 mph 1026.4mb 68f 44f
6:50 5ft 6s 5s 25 29 mph 1026.3mb 68f 44f
5:50 6ft 6s 5s 25 31 mph 1025.4mb 68f 44f
4:50 5ft 5s 5s 25 31 mph 1024.6mb 69f 46f
3:50 5.5ft 5s 5s 25 29 mph 1024.3mb 69f 46f
2:50 6ft 6s 5s 22 29 mph 1024.1mb 70f 47f
1:50 6ft 6s 5s 22 29 mph 1023.6mb 70f 48f
12:50 6ft 5s 5s 25 34 mph 1023.4mb 70f 49f
Do 11/27 11:50 6ft 5s 5s 25 34 mph 1023.1mb 70f 51f
10:50 7ft 5s 5s 25 31 mph 1022.7mb 70f 51f
9:50 8ft 6s 5s 22 29 mph 1023mb 70f 51f
8:50 6.5ft 6s 5s 25 29 mph 1022.6mb 70f 52f
7:50 7ft 6s 5s 25 31 mph 1021.9mb 70f 52f
6:50 7ft 6s 5s 25 29 mph 1021.1mb 70f 52f
5:50 6.5ft 6s 5s 27 34 mph 1019.8mb 70f 55f
4:50 7ft 7s 5s 27 34 mph 1019mb 71f 55f
3:50 7ft 6s 5s 27 36 mph 1017.7mb 71f 55f
2:50 6.5ft 7s 5s 29 36 mph 1016.9mb 71f 55f
1:50 6.5ft 7s 5s 27 34 mph 1016.6mb 71f 54f
12:50 7ft 6s 5s 25 36 mph 1016.6mb 71f 53f
11:50 7ft 6s 5s 25 31 mph 1017mb 71f 54f
10:50 7ft 6s 5s 29 36 mph 1017.5mb 71f 54f
9:50 6.5ft 6s 5s 29 36 mph 1017.8mb 71f 56f
8:50 6ft 5s 5s 31 38 mph 1017.1mb 71f 62f
7:50 5.5ft 6s 5s 22 29 mph 1017.9mb 71f 61f
6:50 5ft 6s 5s 20 27 mph 1018.3mb 70f 59f
5:50 4.5ft 8s 5s 18 25 mph 1018.5mb 70f 59f
4:50 4.5ft 7s 5s 18 25 mph 1018.5mb 70f 58f
3:50 4.5ft 8s 5s 20 27 mph 1018.8mb 70f 59f
2:50 3.5ft 9s 6s 13 22 mph 1019.2mb 71f 58f
1:50 4ft 9s 6s 7 11 mph 1020mb 71f 55f
12:50 4ft 7s 5s 7 11 mph 1019.5mb 71f 54f
Mi 11/26 11:50 4.5ft 9s 5s 11 16 mph 1019.7mb 71f 54f
10:50 5ft 5s 5s 13 18 mph 1019.9mb 71f 54f
9:50 5.5ft 6s 5s 16 22 mph 1019.2mb 71f 54f
8:50 6ft 5s 5s 20 27 mph 1018.7mb 71f 54f
7:50 6ft 6s 5s 22 31 mph 1018.3mb 71f 55f
6:50 6ft 5s 5s 22 27 mph 1017.5mb 71f 56f
5:50 6ft 6s 5s 22 27 mph 1016.3mb 71f 56f
4:50 7ft 6s 5s 25 29 mph 1015.5mb 70f 56f
3:50 7ft 5s 5s 25 29 mph 1014.3mb 71f 55f
2:50 7ft 6s 5s 27 34 mph 1013mb 71f 54f
1:50 7ft 7s 5s 25 31 mph 1012.6mb 71f 55f
12:50 7ft 8s 6s 18 22 mph 1011.4mb 71f 55f
11:50 7.5ft 7s 5s 20 25 mph 1010.9mb 72f 57f
10:50 8ft 8s 6s 25 29 mph 1009.9mb 72f 58f
9:50 9ft 7s 6s 25 31 mph 1009.3mb 72f 61f
8:50 9ft 7s 6s 29 38 mph 1007.1mb 72f 73f
7:50 9ft 6s 5s 29 34 mph 1006.7mb 72f 75f
6:50 9ft 6s 5s 29 36 mph 1007.3mb 71f 76f
5:50 6.5ft 6s 5s 29 38 mph 1007.4mb 71f 76f
4:50 6ft 5s 5s 22 27 mph 1007.5mb 71f 76f
3:50 7.5ft 6s 5s 27 31 mph 1008.2mb 70f 74f
2:50 6ft 5s 5s 31 38 mph 1007.7mb 70f 73f
1:50 5ft 8s 5s 31 38 mph 1009.3mb 71f 72f
12:50 4.5ft 8s 5s 22 29 mph 1012.2mb 71f 72f
Di 11/25 11:50 4ft 9s 6s 18 22 mph 1014.5mb 71f 71f
10:50 3.5ft 9s 6s 11 13 mph 1015.9mb 71f 68f
9:50 3ft 9s 6s 9 11 mph 1016.9mb 70f 67f
8:50 3.5ft 9s 6s 7 11 mph 1017mb 70f 66f
7:50 3.5ft 8s 6s 7 9 mph 1018.1mb 70f 67f
6:50 3.5ft 8s 6s 11 13 mph 1017.5mb 70f 66f
5:50 3.5ft 8s 6s 11 13 mph 1017.4mb 70f 65f
4:50 3.5ft 8s 6s 7 9 mph 1016.7mb 69f 65f
3:50 3.5ft 8s 6s 7 9 mph 1017mb 69f 65f
2:50 3.5ft 9s 6s 7 9 mph 1016.8mb 69f 66f
1:50 4ft 9s 6s 7 9 mph 1017.2mb 70f 67f
12:50 4.5ft 9s 6s 13 16 mph 1017.2mb 70f 67f
11:50 4.5ft 9s 5s 13 16 mph 1017.4mb 70f 67f
10:50 4.5ft 9s 5s 16 20 mph 1017.7mb 70f 69f
9:50 4.5ft 9s 5s 18 20 mph 1018.5mb 71f 67f
8:50 4ft 9s 6s 18 20 mph 1018mb 71f 67f
7:50 4.5ft 9s 6s 4 7 mph 1017.1mb 70f 71f
6:50 4.5ft 8s 6s 4
mph
1016.4mb 70f 70f
5:50 5ft 9s 6s 4
mph
1016.4mb 69f 70f
4:50 5ft 8s 6s 7
mph
1015.7mb 69f 70f
3:50 5ft 8s 6s 4 7 mph 1015.5mb 69f 69f
2:50 5.5ft 8s 6s 4
mph
1017.1mb 69f 69f
1:50 6ft 8s 6s 4 7 mph 1016.7mb 69f 69f
12:50 6ft 9s 6s 13 18 mph 1016.5mb 69f 70f
Mo 11/24 11:50 6ft 9s 6s 7 9 mph 1015.9mb 69f 71f
10:50 6ft 8s 6s 7 9 mph 1015.5mb 70f 71f
9:50 6ft 8s 6s 11 13 mph 1016.2mb 70f 71f
8:50 6.5ft 9s 6s 13
mph
1015.6mb 69f 71f
7:50 7ft 10s 6s 16 18 mph 1015.2mb 69f 72f
6:50 8ft 8s 6s 16 18 mph 1014.4mb 68f 73f
5:50 8ft 9s 6s 18 20 mph 1013.6mb 68f 73f
4:50 8.5ft 9s 6s 16 18 mph 1013.2mb 68f 73f